Lakeport, California
Current Conditions -  °F | °C
As of 3:56 PM on Thursday 18 Dec 2014 (Local Time) from KUKI Reporting Station
Overcast Overcast  
Wind Chill: 54°   Ceiling: 4400
Heat Index: 54°   Visibility: 10mi
Dew Point: 49°   Wind: 6mph
Humidity: 83%   Direction: 170°S
Pressure: 30.11"   Gusts: NA
Location:  39.04°N, 122.92°W
Report Text: KUKI 182356Z AUTO 17005KT 10SM OVC044 12/09 A3011 RMK AO2 SLP194 T01220094 10128 20100 55003
Loading
Personal Weather Stations






























Interactive Weather Map New forecast layout! Learn more

10-Day Weather Forecast

Advertisements
Track Severe Weather on mobile